Time;durP1;ratioP1;P1;durP2;ratioP2;P2;SDS_P1;SDS_P2;PMS_P1;PMS_P2;Temp;Humidity;BMP_temperature;BMP_pressure;BME280_temperature;BME280_humidity;BME280_pressure;Samples;Min_cycle;Max_cycle;Signal;HPM_P1;HPM_P2
2021/12/17 00:01:10;;;;;;;37.63;13.95;;;;;;;4.65;100.00;102834.91;5051638;28;20157;-63
2021/12/17 00:03:44;;;;;;;33.10;13.57;;;;;;;4.64;100.00;102832.25;5053348;28;20743;-65
2021/12/17 00:08:54;;;;;;;33.38;13.23;;;;;;;4.62;100.00;102834.88;5039622;28;20054;-63
2021/12/17 00:11:22;;;;;;;40.00;14.55;;;;;;;4.69;100.00;102835.78;5043146;28;20660;-64
2021/12/17 00:13:50;;;;;;;30.80;13.00;;;;;;;4.70;100.00;102832.28;5049820;28;20497;-64
2021/12/17 00:16:21;;;;;;;36.15;14.13;;;;;;;4.71;100.00;102829.66;5050443;28;20056;-63
2021/12/17 00:48:48;;;;;;;39.22;14.32;;;;;;;4.68;100.00;102839.22;5029831;28;20571;-62
2021/12/17 00:53:50;;;;;;;31.80;12.45;;;;;;;4.67;100.00;102827.94;5051184;28;20061;-64
2021/12/17 00:56:17;;;;;;;31.90;13.00;;;;;;;4.65;100.00;102824.47;5048046;28;20472;-64
2021/12/17 00:58:45;;;;;;;33.17;12.70;;;;;;;4.70;100.00;102821.84;5055495;28;20065;-63
2021/12/17 01:01:12;;;;;;;36.60;14.05;;;;;;;4.69;100.00;102828.81;5046609;28;20076;-64
2021/12/17 01:03:39;;;;;;;33.22;12.20;;;;;;;4.72;100.00;102812.28;5049748;28;20049;-63
2021/12/17 01:06:07;;;;;;;28.27;12.00;;;;;;;4.69;100.00;102821.00;5054159;28;20047;-65
2021/12/17 01:08:34;;;;;;;25.60;11.63;;;;;;;4.72;100.00;102820.97;5043944;28;20048;-63
2021/12/17 01:11:03;;;;;;;35.83;11.80;;;;;;;4.69;100.00;102825.34;5046097;28;20053;-63
2021/12/17 01:13:31;;;;;;;39.05;12.40;;;;;;;4.72;100.00;102830.53;5028937;28;20055;-63
2021/12/17 01:15:58;;;;;;;44.40;13.52;;;;;;;4.73;100.00;102827.09;5051201;28;20058;-64
2021/12/17 01:18:38;;;;;;;43.55;13.35;;;;;;;4.69;100.00;102825.34;5087939;22;20127;-60
2021/12/17 01:21:25;;;;;;;40.92;11.80;;;;;;;4.66;100.00;102820.97;5083219;28;20052;-62
2021/12/17 01:43:12;;;;;;;39.42;11.25;;;;;;;4.62;100.00;102836.63;5066852;28;20063;-61
2021/12/17 01:45:41;;;;;;;29.55;11.95;;;;;;;4.62;100.00;102837.50;5068084;28;20067;-60
2021/12/17 01:48:12;;;;;;;37.90;11.50;;;;;;;4.64;100.00;102838.38;5066160;28;20044;-61
2021/12/17 01:56:29;;;;;;;35.80;11.82;;;;;;;4.70;100.00;102833.16;5063426;28;20059;-60
2021/12/17 02:01:44;;;;;;;37.72;10.55;;;;;;;4.67;100.00;102822.72;5063095;28;20532;-61
2021/12/17 02:04:11;;;;;;;35.20;10.80;;;;;;;4.66;100.00;102825.31;5063923;28;20502;-61
2021/12/17 02:06:39;;;;;;;32.13;11.20;;;;;;;4.63;100.00;102815.75;5070346;28;20048;-62
2021/12/17 02:12:34;;;;;;;36.47;11.10;;;;;;;4.62;100.00;102813.16;5039268;28;20083;-62
2021/12/17 02:20:40;;;;;;;30.70;9.93;;;;;;;4.68;100.00;102816.63;5066683;28;20055;-60
2021/12/17 02:28:50;;;;;;;30.08;9.68;;;;;;;4.68;100.00;102810.53;5062323;28;20094;-63
2021/12/17 02:31:26;;;;;;;31.05;9.43;;;;;;;4.63;100.00;102815.75;5061975;28;20129;-60
2021/12/17 02:33:55;;;;;;;33.53;10.18;;;;;;;4.69;100.00;102809.69;5061234;28;20083;-63
2021/12/17 02:36:26;;;;;;;25.60;8.45;;;;;;;4.67;100.00;102817.50;5059310;28;20063;-61
2021/12/17 02:39:14;;;;;;;28.23;9.48;;;;;;;4.69;100.00;102830.56;5043356;28;20327;-61
2021/12/17 02:47:12;;;;;;;33.13;9.32;;;;;;;4.75;100.00;102820.97;5055432;28;20049;-60
2021/12/17 02:49:42;;;;;;;27.38;9.75;;;;;;;4.73;100.00;102814.03;5061231;28;20060;-59
2021/12/17 02:52:09;;;;;;;27.52;9.68;;;;;;;4.72;100.00;102809.66;5070478;28;20049;-61
2021/12/17 02:54:37;;;;;;;34.10;8.80;;;;;;;4.70;100.00;102814.03;5063043;28;20435;-60
2021/12/17 02:57:05;;;;;;;27.13;8.25;;;;;;;4.67;100.00;102807.06;5066449;28;20575;-61
2021/12/17 02:59:33;;;;;;;29.63;9.23;;;;;;;4.65;100.00;102811.41;5066239;28;20056;-61
2021/12/17 03:02:07;;;;;;;33.58;9.48;;;;;;;4.61;100.00;102817.50;5044475;28;20052;-61
2021/12/17 03:04:35;;;;;;;34.45;10.13;;;;;;;4.63;100.00;102807.91;5062204;28;20058;-60
2021/12/17 03:07:03;;;;;;;31.60;9.15;;;;;;;4.56;100.00;102809.66;5065979;28;20044;-59
2021/12/17 03:10:06;;;;;;;35.95;10.02;;;;;;;4.61;100.00;102800.97;5044799;28;20060;-61
2021/12/17 03:12:31;;;;;;;30.95;8.93;;;;;;;4.60;100.00;102809.69;5062022;28;20141;-61
2021/12/17 03:15:19;;;;;;;39.75;12.20;;;;;;;4.60;100.00;102807.06;5066649;28;20049;-61
2021/12/17 03:23:39;;;;;;;28.58;8.40;;;;;;;4.57;100.00;102794.88;5050997;28;20594;-62
2021/12/17 03:26:21;;;;;;;34.25;9.55;;;;;;;4.55;100.00;102797.50;5060578;28;20045;-61
2021/12/17 03:28:55;;;;;;;34.03;9.40;;;;;;;4.55;100.00;102789.69;5062898;28;20052;-62
2021/12/17 03:31:24;;;;;;;34.25;11.20;;;;;;;4.56;100.00;102793.16;5055018;28;20053;-62
2021/12/17 03:33:58;;;;;;;23.40;8.45;;;;;;;4.53;100.00;102794.00;5047356;28;20044;-60
2021/12/17 03:36:27;;;;;;;38.55;9.73;;;;;;;4.54;100.00;102798.34;5061167;28;20044;-62
2021/12/17 03:38:54;;;;;;;41.05;9.73;;;;;;;4.56;100.00;102788.78;5061124;28;20057;-61
2021/12/17 03:41:27;;;;;;;26.00;9.27;;;;;;;4.56;100.00;102782.72;5059808;28;20041;-62
2021/12/17 03:43:55;;;;;;;32.53;9.52;;;;;;;4.49;100.00;102791.38;5066788;28;20052;-61
2021/12/17 03:46:22;;;;;;;36.13;8.90;;;;;;;4.51;100.00;102784.44;5060801;28;20049;-62
2021/12/17 03:48:49;;;;;;;51.42;10.25;;;;;;;4.50;100.00;102783.59;5068443;28;20048;-61
2021/12/17 03:51:19;;;;;;;39.58;8.88;;;;;;;4.55;100.00;102780.97;5066117;28;20060;-61
2021/12/17 03:53:49;;;;;;;29.45;9.13;;;;;;;4.55;100.00;102780.97;5062015;28;20097;-64
2021/12/17 03:56:16;;;;;;;29.08;9.23;;;;;;;4.52;100.00;102789.66;5045755;28;20102;-62
2021/12/17 03:58:45;;;;;;;29.17;9.63;;;;;;;4.60;100.00;102784.47;5060805;28;20061;-60
2021/12/17 04:01:12;;;;;;;34.05;9.57;;;;;;;4.59;100.00;102787.91;5062906;28;20055;-61
2021/12/17 04:03:39;;;;;;;26.85;8.60;;;;;;;4.60;100.00;102788.81;5060349;28;20210;-60
2021/12/17 04:06:06;;;;;;;31.50;9.38;;;;;;;4.63;100.00;102784.44;5061597;28;20072;-61
2021/12/17 04:08:33;;;;;;;32.78;9.85;;;;;;;4.62;100.00;102787.06;5060335;28;20079;-61
2021/12/17 04:11:08;;;;;;;29.00;9.23;;;;;;;4.60;100.00;102783.59;5060081;28;21755;-61
2021/12/17 04:13:37;;;;;;;37.90;9.50;;;;;;;4.70;100.00;102788.81;5062590;28;20049;-58
2021/12/17 04:16:07;;;;;;;36.05;9.40;;;;;;;4.63;100.00;102788.78;5070293;28;20056;-62
2021/12/17 04:18:40;;;;;;;30.15;10.05;;;;;;;4.62;100.00;102797.50;5060745;28;20139;-61
2021/12/17 04:21:14;;;;;;;35.92;10.77;;;;;;;4.61;100.00;102798.38;5059740;28;20124;-60
2021/12/17 04:23:43;;;;;;;33.22;10.05;;;;;;;4.62;100.00;102802.72;5062699;28;20050;-59
2021/12/17 04:26:10;;;;;;;28.00;9.25;;;;;;;4.65;100.00;102802.72;5062385;28;20136;-61
2021/12/17 04:28:43;;;;;;;33.20;9.88;;;;;;;4.69;100.00;102799.25;5058856;28;20056;-61
2021/12/17 04:31:10;;;;;;;27.05;8.77;;;;;;;4.71;100.00;102797.50;5063916;28;20464;-60
2021/12/17 04:33:39;;;;;;;28.77;10.02;;;;;;;4.70;100.00;102803.59;5064729;28;20532;-61
2021/12/17 04:36:07;;;;;;;24.52;9.43;;;;;;;4.80;100.00;102797.50;5058974;28;20061;-61
2021/12/17 04:38:38;;;;;;;31.05;9.52;;;;;;;4.77;100.00;102792.25;5064782;28;20174;-61
2021/12/17 04:44:07;;;;;;;25.05;9.27;;;;;;;4.71;100.00;102793.13;5072140;28;20044;-60
2021/12/17 04:46:41;;;;;;;;;;;;;;;4.76;100.00;102800.97;5071609;28;20060;-60
2021/12/17 04:57:21;;;;;;;26.77;9.52;;;;;;;4.63;100.00;102796.63;5063999;28;19920;-61
2021/12/17 04:59:48;;;;;;;35.45;10.60;;;;;;;4.65;100.00;102811.41;5065427;28;20049;-60
2021/12/17 05:02:16;;;;;;;41.35;11.07;;;;;;;4.65;100.00;102805.31;5063517;28;20127;-60
2021/12/17 05:04:44;;;;;;;26.00;10.23;;;;;;;4.57;100.00;102814.00;5062079;28;20048;-61
2021/12/17 05:07:13;;;;;;;30.73;10.00;;;;;;;4.60;100.00;102794.91;5064166;28;20489;-61
2021/12/17 05:09:56;;;;;;;38.80;10.90;;;;;;;4.61;100.00;102798.38;5030999;28;20570;-62
2021/12/17 05:20:46;;;;;;;31.92;11.95;;;;;;;4.65;100.00;102793.16;5059827;28;20132;-61
2021/12/17 05:23:14;;;;;;;25.67;9.32;;;;;;;4.66;100.00;102797.50;5063706;28;20530;-61
2021/12/17 05:25:41;;;;;;;31.63;9.93;;;;;;;4.56;100.00;102790.53;5066674;28;20068;-62
2021/12/17 05:28:08;;;;;;;40.17;12.00;;;;;;;4.56;100.00;102794.00;5059081;28;20124;-61
2021/12/17 05:30:36;;;;;;;35.53;11.75;;;;;;;4.58;100.00;102801.81;5058083;28;21849;-60
2021/12/17 05:33:03;;;;;;;37.72;11.30;;;;;;;4.63;100.00;102807.91;5065111;28;20075;-62
2021/12/17 05:35:31;;;;;;;33.30;10.32;;;;;;;4.57;100.00;102806.19;5043341;28;20048;-59
2021/12/17 05:37:58;;;;;;;31.08;9.82;;;;;;;4.50;100.00;102804.44;5063033;28;20036;-61
2021/12/17 05:40:25;;;;;;;36.15;10.85;;;;;;;4.53;100.00;102809.66;5066701;28;20067;-60
2021/12/17 05:42:56;;;;;;;33.13;10.95;;;;;;;4.55;100.00;102805.31;5065356;28;20079;-59
2021/12/17 05:45:37;;;;;;;35.60;11.45;;;;;;;4.51;100.00;102800.97;5062791;28;20060;-62
2021/12/17 05:48:07;;;;;;;34.60;10.82;;;;;;;4.47;100.00;102801.84;5064396;28;20808;-61
2021/12/17 05:50:37;;;;;;;33.88;9.65;;;;;;;4.49;100.00;102810.50;5043419;28;20571;-61
2021/12/17 05:53:05;;;;;;;36.08;10.20;;;;;;;4.38;100.00;102806.16;5061385;28;20040;-60
2021/12/17 05:55:32;;;;;;;38.97;10.68;;;;;;;4.39;100.00;102813.97;5059522;28;20704;-62
2021/12/17 05:57:59;;;;;;;32.63;10.23;;;;;;;4.40;100.00;102807.91;5063553;28;20127;-59
2021/12/17 06:00:31;;;;;;;31.60;10.18;;;;;;;4.52;100.00;102812.28;5060455;28;20044;-62
2021/12/17 06:02:59;;;;;;;36.53;11.50;;;;;;;4.54;100.00;102820.94;5062373;28;20049;-62
2021/12/17 06:05:28;;;;;;;49.15;13.32;;;;;;;4.54;100.00;102815.72;5059267;28;20115;-61
2021/12/17 06:07:55;;;;;;;39.05;12.50;;;;;;;4.47;100.00;102819.22;5067787;28;20166;-60
2021/12/17 06:10:23;;;;;;;35.80;11.27;;;;;;;4.47;100.00;102829.66;5043459;28;20053;-61
2021/12/17 06:12:50;;;;;;;36.88;11.75;;;;;;;4.48;100.00;102841.81;5063645;28;20049;-61
2021/12/17 06:15:18;;;;;;;35.08;11.63;;;;;;;4.45;100.00;102844.41;5061480;28;20060;-60
2021/12/17 06:17:46;;;;;;;29.90;11.52;;;;;;;4.47;100.00;102848.78;5064522;28;20466;-60
2021/12/17 06:20:15;;;;;;;36.22;12.48;;;;;;;4.42;100.00;102847.03;5063503;28;20052;-63
2021/12/17 06:22:43;;;;;;;31.92;10.82;;;;;;;4.35;100.00;102846.13;5061548;28;20062;-60
2021/12/17 06:25:11;;;;;;;28.23;9.68;;;;;;;4.46;100.00;102846.19;5059205;28;20052;-61
2021/12/17 06:27:39;;;;;;;32.55;11.75;;;;;;;4.42;100.00;102834.88;5065056;28;20053;-57
2021/12/17 06:30:08;;;;;;;29.00;10.27;;;;;;;4.41;100.00;102834.84;5065607;28;20048;-61
2021/12/17 06:32:35;;;;;;;26.83;9.18;;;;;;;4.44;100.00;102842.69;5066502;28;20049;-59
2021/12/17 06:35:04;;;;;;;29.23;10.00;;;;;;;4.49;100.00;102848.78;5042776;28;20052;-60
2021/12/17 06:37:31;;;;;;;31.67;10.18;;;;;;;4.46;100.00;102862.69;5064454;28;20136;-61
2021/12/17 06:39:58;;;;;;;21.20;9.23;;;;;;;4.49;100.00;102854.00;5063917;28;20583;-60
2021/12/17 06:42:26;;;;;;;33.20;10.60;;;;;;;4.51;100.00;102852.28;5060309;28;20109;-60
2021/12/17 06:44:57;;;;;;;30.52;9.70;;;;;;;4.49;100.00;102854.00;5063194;28;20043;-60
2021/12/17 06:47:28;;;;;;;24.05;9.80;;;;;;;4.41;100.00;102856.56;5066030;28;20053;-60
2021/12/17 06:58:46;;;;;;;23.48;8.20;;;;;;;4.43;100.00;102848.78;5058725;28;20053;-60
2021/12/17 07:07:26;;;;;;;21.48;7.45;;;;;;;4.54;100.00;102853.13;5059941;28;20127;-60
2021/12/17 07:20:58;;;;;;;;;;;;;;;4.55;100.00;102852.28;5069269;28;20111;-82
2021/12/17 07:23:53;;;;;;;26.52;9.15;;;;;;;4.60;100.00;102851.41;5059896;28;19924;-82
2021/12/17 07:32:18;;;;;;;29.30;9.40;;;;;;;4.62;100.00;102881.84;5057717;28;20072;-83
2021/12/17 07:34:49;;;;;;;28.25;9.13;;;;;;;4.67;100.00;102887.06;5064653;28;20043;-83
2021/12/17 07:39:44;;;;;;;23.63;8.88;;;;;;;4.69;100.00;102870.56;5071048;28;20044;-82
2021/12/17 07:42:11;;;;;;;25.85;8.13;;;;;;;4.64;100.00;102868.78;5057494;28;20054;-83
2021/12/17 07:44:38;;;;;;;25.23;7.85;;;;;;;4.75;100.00;102862.72;5053739;28;20146;-82
2021/12/17 07:47:07;;;;;;;29.50;9.30;;;;;;;4.71;100.00;102854.91;5049055;28;20046;-82
2021/12/17 07:49:34;;;;;;;33.63;8.73;;;;;;;4.77;100.00;102847.97;5061170;28;20090;-82
2021/12/17 07:52:02;;;;;;;27.23;8.43;;;;;;;4.72;100.00;102846.19;5067922;28;20048;-82
2021/12/17 07:54:29;;;;;;;20.38;8.30;;;;;;;4.75;100.00;102835.75;5044737;28;20074;-82
2021/12/17 07:56:56;;;;;;;27.17;8.20;;;;;;;4.89;100.00;102839.25;5055497;28;20078;-82
2021/12/17 07:59:23;;;;;;;24.23;7.47;;;;;;;4.76;100.00;102837.50;5065333;28;20044;-82
2021/12/17 08:01:51;;;;;;;38.25;8.40;;;;;;;4.81;100.00;102831.41;5066781;28;20111;-81
2021/12/17 08:04:18;;;;;;;20.17;7.90;;;;;;;4.78;100.00;102830.56;5043907;28;20069;-82
2021/12/17 08:06:45;;;;;;;25.88;7.90;;;;;;;4.80;100.00;102807.94;5051241;28;20463;-82
2021/12/17 08:09:13;;;;;;;22.58;8.25;;;;;;;4.80;100.00;102824.44;5059777;28;20060;-82
2021/12/17 08:11:40;;;;;;;27.85;8.35;;;;;;;4.87;100.00;102834.91;5050359;28;20131;-81
2021/12/17 08:14:12;;;;;;;25.23;7.68;;;;;;;4.91;100.00;102831.41;5066079;28;20071;-81
2021/12/17 08:16:54;;;;;;;29.83;7.28;;;;;;;4.94;100.00;102839.25;5063318;28;20044;-82
2021/12/17 08:25:08;;;;;;;18.73;7.45;;;;;;;4.97;100.00;102832.28;5060897;28;20447;-82
2021/12/17 08:32:45;;;;;;;25.48;7.63;;;;;;;5.00;100.00;102831.44;5059216;28;20047;-80
2021/12/17 08:35:13;;;;;;;30.65;7.45;;;;;;;5.01;100.00;102841.00;5066346;28;20048;-80
2021/12/17 08:37:41;;;;;;;29.23;8.15;;;;;;;4.99;100.00;102840.97;5048855;28;20501;-81
2021/12/17 08:40:09;;;;;;;26.02;7.75;;;;;;;5.04;100.00;102848.81;5036292;28;20585;-81
2021/12/17 08:42:37;;;;;;;25.98;8.70;;;;;;;5.19;100.00;102840.97;5058674;28;20095;-82
2021/12/17 08:45:07;;;;;;;16.58;6.80;;;;;;;5.24;100.00;102835.75;5044358;28;20517;-81
2021/12/17 08:47:36;;;;;;;25.52;7.28;;;;;;;5.24;100.00;102840.97;5075096;28;20040;-82
2021/12/17 08:50:06;;;;;;;21.10;6.13;;;;;;;5.27;100.00;102856.66;5061969;28;20048;-82
2021/12/17 08:52:35;;;;;;;25.13;7.45;;;;;;;5.23;100.00;102845.34;5069560;28;20059;-81
2021/12/17 08:55:04;;;;;;;26.75;7.25;;;;;;;5.24;100.00;102851.44;5066274;28;20067;-81
2021/12/17 08:57:34;;;;;;;26.90;6.25;;;;;;;5.29;100.00;102850.53;5091522;28;20072;-82
2021/12/17 09:00:06;;;;;;;25.20;6.53;;;;;;;5.38;100.00;102851.41;5047823;28;20046;-81
2021/12/17 09:02:35;;;;;;;21.98;6.95;;;;;;;5.30;100.00;102857.50;5048235;28;20139;-82
2021/12/17 09:05:07;;;;;;;21.15;6.20;;;;;;;5.30;100.00;102860.09;5062076;28;20116;-80
2021/12/17 09:07:34;;;;;;;28.02;7.55;;;;;;;5.34;100.00;102866.19;5087053;28;20089;-82
2021/12/17 09:10:05;;;;;;;19.13;6.45;;;;;;;5.40;100.00;102865.31;5071798;28;20078;-82
2021/12/17 09:12:32;;;;;;;21.52;6.50;;;;;;;5.46;100.00;102873.16;5069239;28;20076;-82
2021/12/17 09:14:59;;;;;;;16.25;5.80;;;;;;;5.43;100.00;102879.25;5074357;28;20048;-82
2021/12/17 09:17:27;;;;;;;25.08;6.88;;;;;;;5.42;100.00;102869.69;5053479;28;20073;-83
2021/12/17 09:19:54;;;;;;;27.00;7.30;;;;;;;5.44;100.00;102869.66;5035821;28;20142;-83
2021/12/17 09:22:22;;;;;;;20.13;7.18;;;;;;;5.45;100.00;102884.47;5064917;28;20083;-83
2021/12/17 09:24:49;;;;;;;20.08;6.22;;;;;;;5.58;100.00;102880.94;5066323;28;20120;-82
2021/12/17 09:27:17;;;;;;;25.42;8.20;;;;;;;5.63;100.00;102887.06;5048000;28;20281;-83
2021/12/17 09:29:44;;;;;;;22.30;6.07;;;;;;;5.63;100.00;102886.16;5059025;28;20048;-83
2021/12/17 09:32:12;;;;;;;21.17;6.85;;;;;;;5.68;100.00;102874.84;5051193;28;20115;-83
2021/12/17 09:34:39;;;;;;;25.60;6.93;;;;;;;5.73;100.00;102873.09;5048926;28;20084;-82
2021/12/17 09:37:07;;;;;;;23.35;6.68;;;;;;;5.72;100.00;102878.31;5060257;28;20048;-82
2021/12/17 09:39:34;;;;;;;27.55;6.80;;;;;;;5.69;100.00;102875.72;5041494;28;20100;-83
2021/12/17 09:42:02;;;;;;;16.92;6.43;;;;;;;5.62;100.00;102881.81;5041795;28;20054;-82
2021/12/17 09:44:29;;;;;;;19.92;6.32;;;;;;;5.74;100.00;102884.41;5074311;28;20055;-82
2021/12/17 09:46:59;;;;;;;24.20;6.47;;;;;;;5.77;100.00;102887.03;5048235;28;20715;-81
2021/12/17 09:49:26;;;;;;;20.10;6.22;;;;;;;5.72;100.00;102871.38;5040171;28;20121;-82
2021/12/17 09:51:54;;;;;;;18.13;5.22;;;;;;;5.81;100.00;102876.56;5070206;28;20151;-83
2021/12/17 09:54:22;;;;;;;16.73;5.90;;;;;;;5.92;100.00;102878.28;5040255;28;20060;-83
2021/12/17 09:56:49;;;;;;;26.15;6.28;;;;;;;5.94;100.00;102877.41;5048017;28;20052;-82
2021/12/17 09:59:16;;;;;;;21.90;5.60;;;;;;;5.91;100.00;102880.00;5061755;28;21458;-83
2021/12/17 10:01:45;;;;;;;15.88;5.82;;;;;;;6.00;100.00;102881.75;5053027;28;20056;-82
2021/12/17 10:04:19;;;;;;;22.77;5.70;;;;;;;5.93;100.00;102880.91;5079284;28;20489;-83
2021/12/17 10:06:48;;;;;;;20.52;5.75;;;;;;;5.87;100.00;102883.50;5053499;28;20512;-83
2021/12/17 10:09:16;;;;;;;15.15;5.20;;;;;;;5.88;100.00;102879.16;5056733;28;20066;-82
2021/12/17 10:12:10;;;;;;;23.15;5.72;;;;;;;5.83;100.00;102889.63;5069424;28;20095;-83
2021/12/17 10:14:37;;;;;;;17.38;5.70;;;;;;;5.84;100.00;102892.22;5049073;28;20158;-82
2021/12/17 10:17:10;;;;;;;18.02;5.95;;;;;;;5.89;100.00;102888.72;5045609;28;20055;-80
2021/12/17 10:19:48;;;;;;;18.73;5.68;;;;;;;5.88;100.00;102887.00;5035189;28;20135;-80
2021/12/17 10:22:18;;;;;;;27.50;6.05;;;;;;;5.84;100.00;102891.34;5053062;28;20042;-82
2021/12/17 10:25:08;;;;;;;17.52;4.97;;;;;;;5.90;100.00;102887.84;5047387;28;20055;-80
2021/12/17 10:27:40;;;;;;;20.70;5.20;;;;;;;5.98;100.00;102892.19;5064055;28;20036;-81
2021/12/17 10:30:16;;;;;;;22.58;5.22;;;;;;;6.00;100.00;102890.47;5056256;28;20516;-80
2021/12/17 10:32:47;;;;;;;20.38;6.55;;;;;;;5.95;100.00;102884.38;5082114;28;20050;-81
2021/12/17 10:35:17;;;;;;;11.23;5.20;;;;;;;5.94;100.00;102879.16;5056315;28;20175;-82
2021/12/17 10:37:51;;;;;;;11.43;5.43;;;;;;;5.97;100.00;102876.53;5056884;28;20055;-80
2021/12/17 10:40:27;;;;;;;17.58;5.40;;;;;;;5.97;100.00;102872.16;5055302;28;20052;-81
2021/12/17 10:45:41;;;;;;;24.80;4.95;;;;;;;5.96;100.00;102880.03;5068654;28;20084;-82
2021/12/17 10:50:52;;;;;;;13.10;4.93;;;;;;;6.14;100.00;102881.69;5048928;28;20092;-83
2021/12/17 10:53:24;;;;;;;14.15;4.47;;;;;;;6.10;100.00;102883.44;5083033;28;20517;-80
2021/12/17 10:56:01;;;;;;;18.60;5.43;;;;;;;5.98;100.00;102884.34;5077743;28;20066;-83
2021/12/17 10:58:31;;;;;;;11.13;4.47;;;;;;;5.96;100.00;102878.28;5075010;28;20066;-84
2021/12/17 11:01:05;;;;;;;14.75;4.70;;;;;;;6.03;100.00;102873.88;5058891;28;20383;-84
2021/12/17 11:03:40;;;;;;;21.13;5.40;;;;;;;6.18;100.00;102881.69;5058191;28;20363;-84
2021/12/17 11:06:08;;;;;;;14.10;4.22;;;;;;;6.22;100.00;102878.19;5051248;28;20040;-83
2021/12/17 11:08:39;;;;;;;13.60;4.80;;;;;;;6.22;100.00;102869.47;5056850;28;20044;-83
2021/12/17 11:11:11;;;;;;;14.85;5.30;;;;;;;6.23;100.00;102889.50;5060465;28;20127;-84
2021/12/17 11:13:58;;;;;;;28.33;4.97;;;;;;;6.26;100.00;102895.59;5068361;28;20043;-84
2021/12/17 11:16:30;;;;;;;15.48;4.00;;;;;;;6.30;100.00;102881.63;5063822;28;20059;-85
2021/12/17 11:18:58;;;;;;;15.65;4.50;;;;;;;6.36;98.95;102888.56;5043397;28;20241;-84
2021/12/17 11:21:26;;;;;;;20.85;4.50;;;;;;;6.38;99.07;102885.94;5054829;28;20064;-83
2021/12/17 11:23:53;;;;;;;17.15;4.13;;;;;;;6.45;98.48;102875.44;5043810;28;20043;-84
2021/12/17 11:26:21;;;;;;;20.25;5.47;;;;;;;6.32;97.68;102864.16;5047893;28;20107;-85
2021/12/17 11:28:49;;;;;;;9.98;3.58;;;;;;;6.30;98.07;102863.31;5044598;28;20071;-84
2021/12/17 11:31:17;;;;;;;11.25;3.60;;;;;;;6.21;97.63;102865.94;5078863;28;20039;-84
2021/12/17 11:33:49;;;;;;;16.00;3.53;;;;;;;6.17;98.39;102866.88;5071951;28;20128;-83
2021/12/17 11:36:17;;;;;;;18.08;4.47;;;;;;;6.20;98.17;102868.59;5084551;28;20071;-84
2021/12/17 11:39:08;;;;;;;16.20;4.18;;;;;;;6.13;97.32;102878.22;5059978;28;20044;-84
2021/12/17 11:42:02;;;;;;;15.95;4.43;;;;;;;6.15;97.00;102873.84;5043987;28;20131;-84
2021/12/17 11:44:40;;;;;;;13.25;4.32;;;;;;;6.16;98.23;102882.53;5073876;28;20086;-84
2021/12/17 11:47:10;;;;;;;15.88;4.35;;;;;;;6.23;97.77;102889.50;5054666;28;20074;-84
2021/12/17 11:49:48;;;;;;;17.20;5.20;;;;;;;6.24;97.08;102897.34;5075636;28;20040;-85
2021/12/17 11:52:35;;;;;;;20.92;5.00;;;;;;;6.18;96.96;102886.03;5057672;28;20548;-85
2021/12/17 11:55:22;;;;;;;11.70;3.95;;;;;;;6.18;97.77;102881.69;5055870;28;20112;-84
2021/12/17 11:57:51;;;;;;;12.50;3.97;;;;;;;6.28;97.88;102885.97;5107201;28;20173;-85
2021/12/17 12:00:31;;;;;;;9.93;4.03;;;;;;;6.14;96.50;102890.41;5106136;28;20046;-85
2021/12/17 12:03:27;;;;;;;16.50;4.72;;;;;;;6.15;96.64;102884.28;5094223;28;20051;-85
2021/12/17 12:05:59;;;;;;;12.25;3.92;;;;;;;6.19;96.93;102887.78;5108680;28;20146;-84
2021/12/17 12:08:47;;;;;;;17.55;4.30;;;;;;;6.24;97.65;102893.84;5082527;28;20078;-86
2021/12/17 12:11:25;;;;;;;13.55;3.90;;;;;;;6.39;97.35;102882.44;5062307;28;20153;-86
2021/12/17 12:13:55;;;;;;;20.17;4.68;;;;;;;6.32;96.08;102884.22;5060102;28;20047;-84
2021/12/17 12:16:26;;;;;;;15.85;4.80;;;;;;;6.38;96.32;102881.56;5044802;28;20246;-84
2021/12/17 12:18:57;;;;;;;17.20;4.50;;;;;;;6.43;96.46;102873.69;5089601;28;20035;-86
2021/12/17 12:21:32;;;;;;;17.38;3.72;;;;;;;6.54;96.45;102884.97;5059357;28;20036;-83
2021/12/17 12:24:13;;;;;;;18.15;4.43;;;;;;;6.53;95.22;102878.03;5068876;28;20036;-83
2021/12/17 12:26:48;;;;;;;13.02;4.22;;;;;;;6.31;93.63;102869.41;5069408;28;20063;-83
2021/12/17 12:29:26;;;;;;;14.93;3.35;;;;;;;6.20;94.38;102873.81;5087339;28;20040;-83
2021/12/17 12:31:56;;;;;;;17.73;4.45;;;;;;;6.12;94.84;102875.59;5060241;28;20112;-82
2021/12/17 12:34:36;;;;;;;17.20;3.70;;;;;;;6.13;95.44;102873.00;5069211;28;20047;-83
2021/12/17 12:37:22;;;;;;;15.38;4.28;;;;;;;6.21;96.00;102876.41;5084102;28;20439;-85
2021/12/17 12:40:02;;;;;;;17.05;3.63;;;;;;;6.28;96.31;102880.75;5109680;28;20052;-84
2021/12/17 12:42:32;;;;;;;16.73;3.95;;;;;;;6.31;96.49;102874.66;5087043;28;20047;-84
2021/12/17 12:45:04;;;;;;;11.43;3.53;;;;;;;6.31;96.79;102864.19;5051836;28;20048;-84
2021/12/17 12:47:52;;;;;;;13.38;4.13;;;;;;;6.31;95.28;102874.66;5076315;28;20075;-82
2021/12/17 12:50:22;;;;;;;18.45;3.50;;;;;;;6.21;95.31;102879.03;5073346;28;20091;-82
2021/12/17 12:52:59;;;;;;;15.07;4.65;;;;;;;6.24;94.81;102876.41;5083961;28;20044;-84
2021/12/17 12:55:30;;;;;;;12.10;3.60;;;;;;;6.19;93.75;102869.47;5064006;28;20056;-84
2021/12/17 12:57:57;;;;;;;17.63;3.85;;;;;;;6.23;94.04;102871.19;5075687;28;20072;-83
2021/12/17 13:00:27;;;;;;;17.50;4.85;;;;;;;6.23;94.26;102865.97;5071379;28;20032;-86
2021/12/17 13:03:05;;;;;;;21.90;4.60;;;;;;;6.18;93.78;102862.50;5083519;28;20032;-88
2021/12/17 13:05:51;;;;;;;13.13;4.00;;;;;;;6.18;93.58;102860.75;5052843;28;20144;-86
2021/12/17 13:08:23;;;;;;;18.38;4.53;;;;;;;6.18;93.53;102863.38;5060691;28;20052;-86
2021/12/17 13:11:04;;;;;;;14.90;4.38;;;;;;;6.20;93.00;102864.22;5062694;28;20063;-85
2021/12/17 13:13:50;;;;;;;16.15;4.75;;;;;;;6.09;93.71;102859.06;5066472;28;20036;-80
2021/12/17 13:17:51;;;;;;;17.05;4.38;;;;;;;6.15;94.26;102873.84;5070506;28;20048;-83
2021/12/17 13:44:51;;;;;;;16.63;3.53;;;;;;;6.25;93.86;102857.22;5087209;28;20044;-83
2021/12/17 13:47:36;;;;;;;13.15;3.90;;;;;;;6.33;92.93;102860.66;5053802;28;20063;-82
2021/12/17 13:50:08;;;;;;;15.10;3.72;;;;;;;6.27;92.38;102863.31;5080176;28;20062;-82
2021/12/17 13:53:00;;;;;;;13.68;3.65;;;;;;;6.22;93.02;102854.63;5078778;28;20043;-81
2021/12/17 13:55:32;;;;;;;13.23;3.55;;;;;;;6.27;93.04;102868.56;5052629;28;20090;-83
2021/12/17 13:58:01;;;;;;;12.63;3.90;;;;;;;6.20;93.32;102873.81;5071028;28;20060;-82
2021/12/17 14:00:36;;;;;;;13.90;3.75;;;;;;;6.26;93.92;102886.84;5043569;28;20412;-83
2021/12/17 14:03:04;;;;;;;13.68;4.60;;;;;;;6.36;93.78;102892.94;5065534;28;20051;-82
2021/12/17 14:05:41;;;;;;;11.07;3.58;;;;;;;6.25;92.71;102887.72;5064160;28;20040;-81
2021/12/17 14:08:10;;;;;;;15.57;3.97;;;;;;;6.28;93.82;102878.13;5071260;28;20126;-82
2021/12/17 14:10:38;;;;;;;16.10;4.57;;;;;;;6.24;93.98;102886.88;5070729;28;20040;-83
2021/12/17 14:13:19;;;;;;;10.85;3.20;;;;;;;6.28;93.12;102883.38;5073640;28;20036;-82
2021/12/17 14:16:27;;;;;;;13.68;2.88;;;;;;;6.32;91.88;102885.09;5062410;28;20040;-83
2021/12/17 14:28:16;;;;;;;15.00;3.50;;;;;;;6.21;90.75;102893.84;4959987;28;20062;-84
2021/12/17 14:30:56;;;;;;;12.93;4.20;;;;;;;6.11;91.67;102890.41;4982010;28;20077;-83
2021/12/17 14:33:32;;;;;;;14.27;3.75;;;;;;;5.99;92.66;102887.84;5006934;28;20066;-82
2021/12/17 14:36:10;;;;;;;16.63;3.85;;;;;;;6.00;93.24;102890.47;5048779;28;20076;-83
2021/12/17 14:38:55;;;;;;;19.08;4.13;;;;;;;6.08;93.24;102893.06;5078026;28;20092;-81
2021/12/17 14:41:55;;;;;;;16.10;4.18;;;;;;;6.09;93.75;102900.03;5062400;28;20028;-82
2021/12/17 14:47:07;;;;;;;16.83;3.60;;;;;;;6.15;93.21;102896.50;5064441;28;20143;-82
2021/12/17 15:00:57;;;;;;;15.25;3.53;;;;;;;6.01;94.19;102901.78;5061099;28;20053;-83
2021/12/17 15:03:28;;;;;;;17.58;3.70;;;;;;;5.88;94.24;102905.28;5071827;28;20074;-82
2021/12/17 15:06:03;;;;;;;14.00;3.85;;;;;;;5.95;94.59;102899.22;5066729;28;20164;-83